Time;durP1;ratioP1;P1;durP2;ratioP2;P2;SDS_P1;SDS_P2;PMS_P1;PMS_P2;Temp;Humidity;BMP_temperature;BMP_pressure;BME280_temperature;BME280_humidity;BME280_pressure;Samples;Min_cycle;Max_cycle;Signal;HPM_P1;HPM_P2
2022/09/14 00:00:09;;;;;;;27.02;24.33;;;;;;;18.73;100.00;99705.50;4866737;29;20208;-72
2022/09/14 00:02:36;;;;;;;31.17;25.73;;;;;;;18.69;100.00;99695.84;4866268;29;20228;-74
2022/09/14 00:05:02;;;;;;;28.15;24.67;;;;;;;18.68;100.00;99680.50;4866004;29;20204;-72
2022/09/14 00:07:29;;;;;;;26.63;23.73;;;;;;;18.73;100.00;99667.31;4865974;29;20208;-71
2022/09/14 00:09:57;;;;;;;25.52;22.77;;;;;;;18.76;100.00;99646.06;4866251;29;20203;-73
2022/09/14 00:12:24;;;;;;;24.60;21.93;;;;;;;18.79;100.00;99639.50;4866054;29;20238;-73
2022/09/14 00:14:52;;;;;;;27.73;25.00;;;;;;;18.74;100.00;99628.97;4864386;29;21023;-72
2022/09/14 00:17:18;;;;;;;25.70;23.05;;;;;;;18.74;100.00;99626.22;4866073;29;20655;-72
2022/09/14 00:19:45;;;;;;;25.80;23.20;;;;;;;18.77;100.00;99638.78;4866262;29;20204;-74
2022/09/14 00:22:11;;;;;;;26.92;24.17;;;;;;;18.75;100.00;99644.34;4865854;29;20260;-71
2022/09/14 00:24:38;;;;;;;29.08;23.90;;;;;;;18.76;100.00;99646.06;4860759;29;20205;-72
2022/09/14 00:27:04;;;;;;;27.20;24.30;;;;;;;18.61;100.00;99649.31;4857721;29;20226;-73
2022/09/14 00:29:32;;;;;;;26.48;23.67;;;;;;;18.58;100.00;99652.34;4857026;29;20678;-72
2022/09/14 00:32:00;;;;;;;25.02;22.52;;;;;;;18.55;100.00;99643.44;4847350;29;20668;-74
2022/09/14 00:34:27;;;;;;;23.98;21.45;;;;;;;18.58;100.00;99650.47;4853790;29;20675;-71
2022/09/14 00:36:54;;;;;;;22.45;20.15;;;;;;;18.64;100.00;99646.31;4865884;29;20298;-75
2022/09/14 00:39:23;;;;;;;21.20;19.00;;;;;;;18.67;100.00;99635.97;4859182;29;20634;-74
2022/09/14 00:41:51;;;;;;;22.65;20.52;;;;;;;18.71;100.00;99634.72;4846699;29;20541;-72
2022/09/14 00:44:58;;;;;;;22.38;20.00;;;;;;;18.67;100.00;99626.94;4847380;29;20319;-72
2022/09/14 00:47:27;;;;;;;22.42;20.15;;;;;;;18.69;100.00;99636.72;4847320;29;20341;-73
2022/09/14 00:49:54;;;;;;;23.70;21.10;;;;;;;18.78;100.00;99647.81;4853965;29;20212;-72
2022/09/14 00:52:24;;;;;;;23.35;20.90;;;;;;;18.62;100.00;99643.72;4865902;29;20495;-73
2022/09/14 00:54:53;;;;;;;22.20;19.80;;;;;;;18.61;100.00;99638.41;4891235;23;20274;-73
2022/09/14 00:57:21;;;;;;;22.27;20.00;;;;;;;18.60;100.00;99637.56;4881729;29;20222;-73
2022/09/14 00:59:50;;;;;;;21.35;18.58;;;;;;;18.61;100.00;99649.31;4872225;29;20445;-73
2022/09/14 01:02:19;;;;;;;22.83;20.42;;;;;;;18.64;100.00;99651.78;4863541;29;20578;-72
2022/09/14 01:04:48;;;;;;;24.13;20.83;;;;;;;18.58;100.00;99653.19;4863521;29;20250;-71
2022/09/14 01:07:27;;;;;;;23.27;20.73;;;;;;;18.50;100.00;99655.75;4863503;29;20214;-72
2022/09/14 01:10:04;;;;;;;23.15;20.25;;;;;;;18.44;100.00;99656.31;4861855;29;20195;-73
2022/09/14 01:12:40;;;;;;;19.60;17.63;;;;;;;18.42;100.00;99656.44;4849682;29;20247;-71
2022/09/14 01:15:14;;;;;;;21.17;18.35;;;;;;;18.38;100.00;99665.88;4845574;29;20192;-73
2022/09/14 01:17:50;;;;;;;20.73;18.35;;;;;;;18.38;100.00;99662.31;4846203;29;20666;-71
2022/09/14 01:20:25;;;;;;;19.33;17.38;;;;;;;18.38;100.00;99651.41;4857726;29;20758;-71
2022/09/14 01:23:02;;;;;;;19.92;17.88;;;;;;;18.45;100.00;99639.81;4864550;29;20320;-71
2022/09/14 01:25:45;;;;;;;22.70;20.30;;;;;;;18.48;100.00;99620.44;4852063;29;20204;-72
2022/09/14 01:28:21;;;;;;;22.02;19.67;;;;;;;18.46;100.00;99610.69;4863012;29;20199;-72
2022/09/14 01:30:51;;;;;;;22.10;19.15;;;;;;;18.48;100.00;99605.97;4862851;29;20258;-72
2022/09/14 01:33:24;;;;;;;22.98;20.55;;;;;;;18.46;100.00;99613.41;4865799;29;20236;-72
2022/09/14 01:35:54;;;;;;;26.15;20.52;;;;;;;18.41;100.00;99612.97;4856458;29;20196;-73
2022/09/14 01:38:26;;;;;;;24.00;20.50;;;;;;;18.42;100.00;99601.91;4853943;29;20216;-70
2022/09/14 01:40:55;;;;;;;22.38;19.48;;;;;;;18.41;100.00;99588.44;4852869;29;20193;-73
2022/09/14 01:43:28;;;;;;;22.95;19.38;;;;;;;18.43;100.00;99590.03;4849859;29;20221;-71
2022/09/14 01:45:59;;;;;;;22.77;19.08;;;;;;;18.46;100.00;99592.47;4860718;29;20192;-71
2022/09/14 01:48:32;;;;;;;20.40;18.20;;;;;;;18.48;100.00;99584.16;4867549;29;20273;-71
2022/09/14 01:51:02;;;;;;;20.60;18.48;;;;;;;18.46;100.00;99591.59;4867521;29;20674;-73
2022/09/14 01:53:36;;;;;;;20.20;18.15;;;;;;;18.46;100.00;99577.97;4866971;29;20266;-72
2022/09/14 01:56:09;;;;;;;20.52;18.33;;;;;;;18.48;100.00;99571.38;4855370;29;20222;-73
2022/09/14 01:58:41;;;;;;;20.10;18.00;;;;;;;18.49;100.00;99569.50;4849295;29;20208;-71
2022/09/14 02:01:10;;;;;;;19.42;17.42;;;;;;;18.50;100.00;99569.38;4848578;29;20189;-71
2022/09/14 02:03:41;;;;;;;20.15;18.05;;;;;;;18.51;100.00;99564.78;4848776;29;20239;-72
2022/09/14 02:06:13;;;;;;;19.48;17.48;;;;;;;18.51;100.00;99573.81;4857962;29;20208;-72
2022/09/14 02:08:40;;;;;;;18.60;16.48;;;;;;;18.53;100.00;99568.22;4866199;29;20196;-72
2022/09/14 02:11:07;;;;;;;19.33;17.35;;;;;;;18.54;100.00;99564.50;4869053;29;20303;-71
2022/09/14 02:13:34;;;;;;;17.83;15.60;;;;;;;18.54;100.00;99562.66;4871909;29;20234;-70
2022/09/14 02:16:02;;;;;;;17.75;15.65;;;;;;;18.55;100.00;99561.63;4853827;29;20209;-71
2022/09/14 02:18:29;;;;;;;18.27;16.48;;;;;;;18.55;100.00;99556.19;4848292;29;20291;-71
2022/09/14 02:20:59;;;;;;;17.48;15.57;;;;;;;18.54;100.00;99553.56;4864093;29;20204;-71
2022/09/14 02:23:26;;;;;;;18.98;17.10;;;;;;;18.57;100.00;99547.00;4864074;29;20251;-72
2022/09/14 02:25:52;;;;;;;23.17;16.88;;;;;;;18.53;100.00;99547.28;4864138;29;20204;-72
2022/09/14 02:28:19;;;;;;;18.17;15.80;;;;;;;18.54;100.00;99545.41;4864968;29;20560;-72
2022/09/14 02:30:54;;;;;;;18.60;16.70;;;;;;;18.54;100.00;99545.41;4865129;29;20235;-71
2022/09/14 02:33:29;;;;;;;19.35;17.25;;;;;;;18.57;100.00;99538.84;4864822;29;20617;-72
2022/09/14 02:36:02;;;;;;;17.80;16.00;;;;;;;18.57;100.00;99541.56;4862126;29;20267;-73
2022/09/14 02:38:35;;;;;;;18.13;16.23;;;;;;;18.59;100.00;99536.78;4847412;29;20287;-73
2022/09/14 02:41:10;;;;;;;18.92;16.58;;;;;;;18.61;100.00;99537.50;4847138;29;20197;-72
2022/09/14 02:43:47;;;;;;;19.40;15.40;;;;;;;18.59;100.00;99542.25;4848550;29;20238;-71
2022/09/14 02:46:17;;;;;;;20.95;16.83;;;;;;;18.59;100.00;99532.22;4868324;29;20527;-73
2022/09/14 02:48:52;;;;;;;19.27;16.58;;;;;;;18.60;100.00;99531.22;4867284;29;20192;-72
2022/09/14 02:51:30;;;;;;;20.10;18.08;;;;;;;18.54;100.00;99535.38;4867224;29;20586;-71
2022/09/14 02:54:01;;;;;;;22.83;18.55;;;;;;;18.48;100.00;99530.47;4865008;29;20234;-71
2022/09/14 02:56:29;;;;;;;20.05;17.85;;;;;;;18.50;100.00;99531.22;4867315;29;20572;-73
2022/09/14 02:58:56;;;;;;;20.30;18.10;;;;;;;18.47;100.00;99530.63;4867138;29;20216;-74
2022/09/14 03:01:24;;;;;;;21.43;19.13;;;;;;;18.42;100.00;99532.91;4866916;29;21178;-72
2022/09/14 03:03:51;;;;;;;20.23;18.00;;;;;;;18.36;100.00;99534.34;4864230;29;20474;-73
2022/09/14 03:06:18;;;;;;;22.13;19.23;;;;;;;18.36;100.00;99530.75;4848769;29;20219;-72
2022/09/14 03:08:45;;;;;;;24.45;20.73;;;;;;;18.36;100.00;99538.91;4851803;29;20609;-71
2022/09/14 03:11:12;;;;;;;22.98;20.27;;;;;;;18.21;100.00;99541.19;4869264;29;20218;-72
2022/09/14 03:13:39;;;;;;;22.20;20.00;;;;;;;18.24;100.00;99535.47;4865836;29;20231;-69
2022/09/14 03:16:06;;;;;;;28.95;25.65;;;;;;;18.25;100.00;99531.75;4853754;29;20204;-73
2022/09/14 03:18:33;;;;;;;24.73;20.10;;;;;;;18.16;100.00;99530.72;4847628;29;20215;-72
2022/09/14 03:21:05;;;;;;;21.10;19.00;;;;;;;18.16;100.00;99535.28;4848081;29;20205;-71
2022/09/14 03:23:35;;;;;;;20.48;18.25;;;;;;;18.18;100.00;99527.81;4848263;29;20976;-71
2022/09/14 03:26:07;;;;;;;20.85;18.67;;;;;;;18.21;100.00;99519.41;4850265;29;20204;-73
2022/09/14 03:28:33;;;;;;;21.17;19.02;;;;;;;18.22;100.00;99524.69;4847136;29;20232;-71
2022/09/14 03:31:00;;;;;;;22.35;19.95;;;;;;;18.24;100.00;99524.56;4846609;29;20212;-70
2022/09/14 03:33:27;;;;;;;23.92;19.55;;;;;;;18.17;100.00;99523.41;4847669;29;20236;-73
2022/09/14 03:35:53;;;;;;;23.85;19.73;;;;;;;18.21;100.00;99520.25;4846027;29;20212;-70
2022/09/14 03:38:21;;;;;;;19.92;17.92;;;;;;;18.27;100.00;99516.09;4846654;29;20205;-71
2022/09/14 03:40:48;;;;;;;25.92;22.27;;;;;;;18.32;100.00;99508.38;4846103;29;20209;-71
2022/09/14 03:43:14;;;;;;;21.90;18.05;;;;;;;18.38;100.00;99515.97;4856354;29;20326;-72
2022/09/14 03:45:41;;;;;;;20.98;18.77;;;;;;;18.38;100.00;99515.09;4864517;29;20208;-72
2022/09/14 03:48:10;;;;;;;20.50;18.48;;;;;;;18.37;100.00;99518.84;4864317;29;20230;-71
2022/09/14 03:50:38;;;;;;;19.85;17.45;;;;;;;18.39;100.00;99516.84;4865159;29;20651;-71
2022/09/14 03:53:05;;;;;;;19.08;16.83;;;;;;;18.39;100.00;99512.25;4862961;29;20646;-71
2022/09/14 03:55:33;;;;;;;18.17;16.27;;;;;;;18.38;100.00;99507.78;4864773;29;20252;-70
2022/09/14 03:57:59;;;;;;;18.88;16.33;;;;;;;18.40;100.00;99508.50;4866703;29;20274;-70
2022/09/14 04:00:26;;;;;;;19.95;17.25;;;;;;;18.41;100.00;99499.34;4854771;29;20247;-72
2022/09/14 04:02:53;;;;;;;18.13;14.57;;;;;;;18.47;100.00;99497.91;4855707;29;20256;-72
2022/09/14 04:05:19;;;;;;;16.00;14.48;;;;;;;18.42;100.00;99489.28;4868880;29;20218;-71
2022/09/14 04:07:46;;;;;;;17.15;14.10;;;;;;;18.36;100.00;99489.84;4867687;29;20215;-72
2022/09/14 04:10:12;;;;;;;14.15;12.65;;;;;;;18.41;100.00;99485.72;4872204;29;20271;-73
2022/09/14 04:12:45;;;;;;;15.93;12.45;;;;;;;18.41;100.00;99488.44;4867649;29;20228;-72
2022/09/14 04:15:12;;;;;;;13.40;11.32;;;;;;;18.45;100.00;99480.81;4860076;29;20190;-72
2022/09/14 04:17:39;;;;;;;15.02;12.77;;;;;;;18.42;100.00;99484.69;4868536;29;20208;-72
2022/09/14 04:20:09;;;;;;;16.85;14.15;;;;;;;18.45;100.00;99478.97;4868546;29;20204;-71
2022/09/14 04:22:35;;;;;;;29.60;23.98;;;;;;;18.45;100.00;99478.09;4870246;29;20192;-72
2022/09/14 04:25:02;;;;;;;30.35;25.92;;;;;;;18.45;100.00;99472.66;4863997;29;20222;-72
2022/09/14 04:27:32;;;;;;;20.83;18.25;;;;;;;18.45;100.00;99469.91;4852125;29;20291;-73
2022/09/14 04:30:03;;;;;;;17.95;15.60;;;;;;;18.45;100.00;99472.66;4874238;29;20192;-73
2022/09/14 04:32:29;;;;;;;17.60;14.90;;;;;;;18.46;100.00;99469.78;4872597;29;20240;-72
2022/09/14 04:34:56;;;;;;;16.00;14.30;;;;;;;18.46;100.00;99468.94;4869766;29;20603;-72
2022/09/14 04:37:23;;;;;;;18.48;15.27;;;;;;;18.40;100.00;99477.66;4865662;29;20449;-71
2022/09/14 04:39:49;;;;;;;16.65;14.98;;;;;;;18.40;100.00;99475.78;4863209;29;20211;-71
2022/09/14 04:42:16;;;;;;;15.40;13.80;;;;;;;18.41;100.00;99480.25;4866963;29;20208;-77
2022/09/14 04:44:42;;;;;;;18.08;16.20;;;;;;;18.36;100.00;99468.94;4868835;29;20288;-76
2022/09/14 04:47:12;;;;;;;17.25;15.45;;;;;;;18.28;100.00;99472.34;4866248;29;20211;-76
2022/09/14 04:49:39;;;;;;;15.52;13.93;;;;;;;18.22;100.00;99466.59;4865422;29;20192;-77
2022/09/14 04:52:08;;;;;;;15.55;13.25;;;;;;;18.25;100.00;99471.78;4864862;29;20208;-76
2022/09/14 04:54:35;;;;;;;15.65;13.95;;;;;;;18.23;100.00;99461.03;4865758;29;20584;-77
2022/09/14 04:57:03;;;;;;;13.98;12.52;;;;;;;18.29;100.00;99462.31;4865393;29;20212;-76
2022/09/14 04:59:29;;;;;;;17.75;12.32;;;;;;;18.33;100.00;99461.03;4866691;29;20204;-75
2022/09/14 05:01:56;;;;;;;15.02;13.48;;;;;;;18.27;100.00;99461.59;4866011;29;20655;-76
2022/09/14 05:04:24;;;;;;;14.82;13.20;;;;;;;18.31;100.00;99455.72;4851464;29;20233;-77
2022/09/14 05:06:50;;;;;;;16.15;14.45;;;;;;;18.29;100.00;99465.91;4830844;29;20205;-76
2022/09/14 05:09:18;;;;;;;15.85;14.10;;;;;;;18.32;100.00;99462.03;4846629;29;20250;-76
2022/09/14 05:11:45;;;;;;;15.63;13.20;;;;;;;18.36;100.00;99459.88;4847121;29;20224;-76
2022/09/14 05:14:13;;;;;;;14.93;13.43;;;;;;;18.35;100.00;99461.75;4848139;29;20283;-76
2022/09/14 05:16:42;;;;;;;19.15;15.13;;;;;;;18.26;100.00;99458.00;4848038;29;20582;-78
2022/09/14 05:19:12;;;;;;;15.35;13.80;;;;;;;18.22;100.00;99456.56;4852686;29;20572;-76
2022/09/14 05:21:40;;;;;;;15.05;12.90;;;;;;;18.26;100.00;99462.59;4849138;29;20265;-75
2022/09/14 05:24:10;;;;;;;14.93;13.43;;;;;;;18.28;100.00;99458.72;4844785;29;20311;-76
2022/09/14 05:26:37;;;;;;;14.55;13.05;;;;;;;18.26;100.00;99452.56;4844389;29;20245;-77
2022/09/14 05:29:04;;;;;;;14.98;13.50;;;;;;;18.31;100.00;99455.72;4850732;29;20283;-77
2022/09/14 05:31:31;;;;;;;15.83;13.47;;;;;;;18.29;100.00;99456.84;4869535;29;20211;-76
2022/09/14 05:33:59;;;;;;;14.95;12.90;;;;;;;18.26;100.00;99466.19;4877838;29;20491;-74
2022/09/14 05:36:25;;;;;;;15.15;13.55;;;;;;;18.24;100.00;99460.00;4878579;29;20203;-74
2022/09/14 05:38:53;;;;;;;14.60;12.10;;;;;;;18.28;100.00;99466.03;4878417;29;20230;-74
2022/09/14 05:41:20;;;;;;;15.50;13.75;;;;;;;18.31;100.00;99468.47;4879363;29;20211;-74
2022/09/14 05:43:47;;;;;;;14.60;12.93;;;;;;;18.33;100.00;99466.47;4878693;29;20279;-75
2022/09/14 05:46:16;;;;;;;16.90;13.63;;;;;;;18.33;100.00;99466.47;4878093;29;20704;-74
2022/09/14 05:48:43;;;;;;;14.13;12.73;;;;;;;18.26;100.00;99463.44;4860273;29;20290;-73
2022/09/14 05:51:12;;;;;;;15.02;13.43;;;;;;;18.26;100.00;99462.59;4876047;29;20670;-77
2022/09/14 05:53:39;;;;;;;14.07;12.68;;;;;;;18.30;100.00;99466.78;4876955;29;20231;-73
2022/09/14 05:56:09;;;;;;;14.97;13.47;;;;;;;18.25;100.00;99466.34;4842706;29;20675;-74
2022/09/14 05:58:36;;;;;;;15.50;12.73;;;;;;;18.23;100.00;99465.63;4842071;29;20469;-74
2022/09/14 06:01:07;;;;;;;14.80;12.90;;;;;;;18.21;100.00;99465.75;4843172;29;20562;-75
2022/09/14 06:03:34;;;;;;;13.77;12.30;;;;;;;18.19;100.00;99464.16;4843958;29;20224;-73
2022/09/14 06:06:00;;;;;;;14.52;12.77;;;;;;;18.24;100.00;99460.00;4841838;29;20209;-74
2022/09/14 06:08:27;;;;;;;15.57;13.95;;;;;;;18.25;100.00;99463.63;4842107;29;20701;-73
2022/09/14 06:10:54;;;;;;;14.40;12.90;;;;;;;18.29;100.00;99456.84;4841652;29;20679;-74
2022/09/14 06:13:22;;;;;;;14.98;13.13;;;;;;;18.26;100.00;99455.28;4841593;29;20323;-74
2022/09/14 06:15:49;;;;;;;13.43;11.93;;;;;;;18.22;100.00;99455.69;4842580;29;20246;-74
2022/09/14 06:18:15;;;;;;;14.02;11.90;;;;;;;18.26;100.00;99449.81;4842180;29;20219;-75
2022/09/14 06:20:50;;;;;;;13.93;12.13;;;;;;;18.31;100.00;99444.81;4845902;29;20242;-74
2022/09/14 06:23:16;;;;;;;15.45;11.77;;;;;;;18.41;100.00;99449.44;4846227;29;20228;-73
2022/09/14 06:25:43;;;;;;;13.07;11.80;;;;;;;18.45;100.00;99442.66;4851495;29;20227;-73
2022/09/14 06:28:09;;;;;;;12.93;11.63;;;;;;;18.49;100.00;99444.94;4864555;29;20253;-73
2022/09/14 06:30:37;;;;;;;12.60;11.37;;;;;;;18.53;100.00;99443.66;4854840;29;20564;-74
2022/09/14 06:33:05;;;;;;;11.93;10.73;;;;;;;18.63;100.00;99437.34;4845186;29;20496;-73
2022/09/14 06:35:31;;;;;;;12.80;11.50;;;;;;;18.66;100.00;99434.34;4846006;29;20215;-74
2022/09/14 06:37:58;;;;;;;13.32;11.93;;;;;;;18.71;100.00;99442.94;4855620;29;20215;-75
2022/09/14 06:40:25;;;;;;;11.77;10.63;;;;;;;18.75;100.00;99442.50;4865198;29;20209;-74
2022/09/14 06:42:52;;;;;;;13.68;10.52;;;;;;;18.81;100.00;99434.78;4864406;29;20204;-74
2022/09/14 06:45:19;;;;;;;11.65;10.50;;;;;;;18.88;100.00;99439.53;4864847;29;20208;-74
2022/09/14 06:47:47;;;;;;;13.20;10.80;;;;;;;18.95;100.00;99437.91;4863876;29;20215;-73
2022/09/14 06:50:13;;;;;;;12.30;10.70;;;;;;;18.93;100.00;99439.94;4862948;29;20509;-75
2022/09/14 06:52:40;;;;;;;11.77;10.57;;;;;;;18.99;100.00;99441.19;4863949;29;20437;-74
2022/09/14 06:55:08;;;;;;;10.23;9.20;;;;;;;19.01;100.00;99439.19;4875202;23;20583;-72
2022/09/14 06:57:36;;;;;;;11.90;10.57;;;;;;;18.93;100.00;99448.13;4864716;29;20533;-74
2022/09/14 07:00:04;;;;;;;12.43;9.73;;;;;;;18.80;100.00;99450.28;4866598;29;20778;-73
2022/09/14 07:02:31;;;;;;;10.30;9.00;;;;;;;18.79;100.00;99442.25;4867988;29;20450;-73
2022/09/14 07:04:59;;;;;;;12.27;9.83;;;;;;;18.69;100.00;99454.00;4854102;29;21077;-74
2022/09/14 07:07:25;;;;;;;11.55;9.65;;;;;;;18.70;100.00;99453.00;4846097;29;20478;-72
2022/09/14 07:09:52;;;;;;;12.40;9.98;;;;;;;18.82;100.00;99448.28;4846106;29;20292;-73
2022/09/14 07:12:18;;;;;;;12.03;8.50;;;;;;;18.80;100.00;99457.63;4846163;29;20269;-73
2022/09/14 07:14:45;;;;;;;11.43;9.13;;;;;;;18.77;100.00;99453.31;4845860;29;20529;-72
2022/09/14 07:17:13;;;;;;;11.05;9.75;;;;;;;18.72;100.00;99450.09;4846090;29;20749;-73
2022/09/14 07:19:39;;;;;;;11.38;9.55;;;;;;;18.66;100.00;99451.56;4845603;29;20209;-72
2022/09/14 07:22:07;;;;;;;9.75;8.75;;;;;;;18.79;100.00;99451.31;4845488;29;20639;-73
2022/09/14 07:24:34;;;;;;;10.02;9.00;;;;;;;18.83;100.00;99439.06;4846036;29;20719;-73
2022/09/14 07:27:02;;;;;;;10.85;8.32;;;;;;;19.02;100.00;99437.34;4845868;29;20303;-73
2022/09/14 07:29:28;;;;;;;11.18;9.40;;;;;;;19.14;100.00;99425.22;4845694;29;20782;-73
2022/09/14 07:31:55;;;;;;;10.60;8.93;;;;;;;19.17;100.00;99423.09;4846415;29;20295;-73
2022/09/14 07:34:22;;;;;;;12.03;8.87;;;;;;;19.20;100.00;99416.47;4851689;29;20529;-72
2022/09/14 07:36:49;;;;;;;9.77;8.07;;;;;;;19.22;100.00;99411.72;4848819;29;20454;-74
2022/09/14 07:39:17;;;;;;;9.87;8.03;;;;;;;19.27;100.00;99406.66;4847197;29;20513;-74
2022/09/14 07:41:45;;;;;;;10.80;8.30;;;;;;;19.40;100.00;99402.72;4847821;29;20552;-73
2022/09/14 07:44:14;;;;;;;10.23;7.40;;;;;;;19.50;100.00;99403.56;4845945;29;21020;-73
2022/09/14 07:46:43;;;;;;;8.43;7.53;;;;;;;19.70;100.00;99399.75;4845303;29;20492;-74
2022/09/14 07:49:11;;;;;;;12.60;8.37;;;;;;;19.74;100.00;99392.97;4845338;29;20536;-72
2022/09/14 07:51:38;;;;;;;8.40;7.30;;;;;;;19.81;100.00;99395.94;4845028;29;20544;-73
2022/09/14 07:54:06;;;;;;;10.23;8.30;;;;;;;19.81;100.00;99395.94;4844166;29;20501;-74
2022/09/14 07:56:35;;;;;;;6.63;5.90;;;;;;;19.92;100.00;99394.84;4845760;29;20514;-73
2022/09/14 07:59:02;;;;;;;9.17;5.70;;;;;;;19.94;100.00;99385.50;4846369;29;20503;-75
2022/09/14 08:01:30;;;;;;;8.97;6.40;;;;;;;19.74;100.00;99392.06;4845566;29;20454;-75
2022/09/14 08:03:57;;;;;;;7.30;6.07;;;;;;;19.75;100.00;99383.75;4844367;29;20505;-74
2022/09/14 08:06:25;;;;;;;6.73;6.03;;;;;;;19.84;100.00;99386.56;4844199;29;20532;-73
2022/09/14 08:08:53;;;;;;;6.37;5.60;;;;;;;19.93;100.00;99397.44;4844308;29;20454;-72
2022/09/14 08:11:22;;;;;;;6.97;6.00;;;;;;;19.88;100.00;99398.91;4844116;29;20878;-73
2022/09/14 08:13:52;;;;;;;6.83;6.10;;;;;;;19.69;100.00;99402.59;4843774;29;20584;-73
2022/09/14 08:16:19;;;;;;;8.07;6.30;;;;;;;19.61;100.00;99421.63;4857814;29;20818;-73
2022/09/14 08:18:46;;;;;;;7.97;7.27;;;;;;;19.82;100.00;99407.72;4861776;29;21027;-72
2022/09/14 08:21:14;;;;;;;8.80;6.40;;;;;;;20.05;100.00;99409.00;4861699;29;20967;-73
2022/09/14 08:23:42;;;;;;;8.00;6.47;;;;;;;20.10;100.00;99405.78;4862277;29;20532;-72
2022/09/14 08:26:11;;;;;;;15.10;5.57;;;;;;;20.26;100.00;99410.56;4862577;29;20484;-73
2022/09/14 08:28:37;;;;;;;7.17;6.20;;;;;;;19.97;100.00;99407.03;4862258;29;20456;-73
2022/09/14 08:31:08;;;;;;;7.33;6.63;;;;;;;19.82;100.00;99405.00;4864755;29;20460;-73
2022/09/14 08:33:37;;;;;;;7.10;6.33;;;;;;;19.71;100.00;99406.91;4866841;29;20860;-73
2022/09/14 08:36:04;;;;;;;7.50;6.43;;;;;;;19.69;100.00;99408.94;4862438;29;20523;-72
2022/09/14 08:38:31;;;;;;;6.33;5.73;;;;;;;19.77;100.00;99409.03;4869405;29;20455;-73
2022/09/14 08:41:01;;;;;;;8.60;6.30;;;;;;;19.90;100.00;99407.78;4862114;29;20523;-72
2022/09/14 08:43:29;;;;;;;8.87;5.80;;;;;;;19.76;100.00;99407.31;4861362;29;20497;-73
2022/09/14 08:46:02;;;;;;;8.40;6.30;;;;;;;19.68;100.00;99414.53;4861876;29;21011;-73
2022/09/14 08:48:34;;;;;;;6.10;5.50;;;;;;;19.82;100.00;99405.00;4861777;29;20469;-72
2022/09/14 08:51:04;;;;;;;6.50;5.90;;;;;;;20.06;100.00;99402.53;4862081;29;20528;-73
2022/09/14 08:53:38;;;;;;;7.20;6.33;;;;;;;20.15;100.00;99409.78;4862305;29;20536;-73
2022/09/14 08:56:12;;;;;;;9.23;6.83;;;;;;;20.03;100.00;99421.94;4861568;29;20905;-72
2022/09/14 08:58:52;;;;;;;7.10;5.53;;;;;;;20.17;100.00;99413.25;4861879;29;20468;-72
2022/09/14 09:01:27;;;;;;;7.13;5.37;;;;;;;20.13;100.00;99417.28;4861982;29;20539;-73
2022/09/14 09:04:24;;;;;;;10.60;5.80;;;;;;;19.92;100.00;99436.72;4862587;29;20450;-73
2022/09/14 09:06:58;;;;;;;6.60;5.27;;;;;;;19.55;100.00;99448.50;4822858;29;20537;-73
2022/09/14 09:09:33;;;;;;;7.40;6.27;;;;;;;19.52;100.00;99475.25;4822688;29;20454;-73
2022/09/14 09:12:00;;;;;;;6.70;6.10;;;;;;;19.63;100.00;99476.91;4822916;29;20454;-72
2022/09/14 09:14:33;;;;;;;7.50;5.90;;;;;;;19.42;100.00;99477.16;4822779;29;20572;-73
2022/09/14 09:17:03;;;;;;;6.93;5.90;;;;;;;19.26;100.00;99477.78;4823241;29;20213;-73
2022/09/14 09:19:36;;;;;;;7.77;6.97;;;;;;;19.35;100.00;99474.16;4822248;29;20462;-73
2022/09/14 09:22:12;;;;;;;10.23;6.43;;;;;;;19.51;100.00;99462.59;4823223;29;20517;-74
2022/09/14 09:24:42;;;;;;;6.83;6.17;;;;;;;19.56;100.00;99446.66;4822914;29;20839;-73
2022/09/14 09:27:10;;;;;;;10.07;6.20;;;;;;;19.79;100.00;99452.59;4822746;29;20445;-72
2022/09/14 09:29:37;;;;;;;8.10;6.27;;;;;;;19.98;100.00;99437.97;4822140;29;20458;-73
2022/09/14 09:32:05;;;;;;;6.97;6.27;;;;;;;19.95;100.00;99433.66;4821935;29;20998;-72
2022/09/14 09:34:34;;;;;;;8.17;7.20;;;;;;;20.15;100.00;99428.94;4822458;29;20491;-72
2022/09/14 09:37:01;;;;;;;8.97;7.17;;;;;;;20.16;100.00;99427.91;4822892;29;20450;-73
2022/09/14 09:39:31;;;;;;;7.20;6.37;;;;;;;20.18;100.00;99422.28;4823104;29;20546;-73
2022/09/14 09:42:01;;;;;;;8.50;7.70;;;;;;;20.53;100.00;99418.72;4823320;29;20458;-72
2022/09/14 09:44:28;;;;;;;10.90;7.40;;;;;;;21.03;100.00;99401.69;4851847;29;20871;-73
2022/09/14 09:46:56;;;;;;;9.33;7.60;;;;;;;20.85;100.00;99394.50;4861638;29;20894;-74
2022/09/14 09:49:30;;;;;;;12.03;7.60;;;;;;;20.55;100.00;99399.38;4861239;29;20539;-73
2022/09/14 09:52:07;;;;;;;8.37;7.57;;;;;;;20.54;100.00;99408.63;4861289;29;20488;-73
2022/09/14 09:54:34;;;;;;;9.37;6.70;;;;;;;20.71;100.00;99396.81;4863597;29;20587;-73
2022/09/14 09:57:04;;;;;;;8.03;6.00;;;;;;;22.05;100.00;99374.41;4865644;29;20861;-73
2022/09/14 09:59:35;;;;;;;6.43;5.83;;;;;;;21.69;100.00;99380.13;4864394;29;20515;-73
2022/09/14 10:02:21;;;;;;;7.30;6.60;;;;;;;21.11;100.00;99384.44;4864716;29;20425;-72
2022/09/14 10:05:00;;;;;;;5.90;5.30;;;;;;;21.02;100.00;99388.13;4864863;29;20895;-72
2022/09/14 10:07:30;;;;;;;7.40;5.70;;;;;;;21.14;100.00;99372.28;4864704;29;20547;-74
2022/09/14 10:09:59;;;;;;;7.60;5.73;;;;;;;21.19;100.00;99356.25;4864879;29;20841;-73
2022/09/14 10:12:26;;;;;;;5.80;5.13;;;;;;;21.24;100.00;99356.63;4865907;29;20472;-72
2022/09/14 10:15:18;;;;;;;7.87;5.20;;;;;;;21.03;100.00;99341.47;4867380;29;20907;-71
2022/09/14 10:17:56;;;;;;;5.73;4.90;;;;;;;21.15;100.00;99352.97;4862298;29;20535;-72
2022/09/14 10:20:24;;;;;;;7.43;5.10;;;;;;;20.87;100.00;99341.38;4864507;29;20780;-72
2022/09/14 10:22:52;;;;;;;6.20;4.70;;;;;;;20.54;100.00;99330.16;4865467;29;20547;-72
2022/09/14 10:25:24;;;;;;;5.77;5.27;;;;;;;20.55;100.00;99337.31;4864234;29;20468;-73
2022/09/14 10:27:58;;;;;;;7.67;5.90;;;;;;;20.45;100.00;99328.38;4864156;29;21030;-73
2022/09/14 10:30:27;;;;;;;6.23;5.63;;;;;;;20.27;100.00;99324.81;4864394;29;20523;-73
2022/09/14 10:32:58;;;;;;;9.60;6.27;;;;;;;20.29;100.00;99333.72;4864454;29;20452;-72
2022/09/14 10:35:39;;;;;;;6.77;5.90;;;;;;;20.52;100.00;99320.41;4864986;29;20934;-73
2022/09/14 10:38:24;;;;;;;8.00;6.00;;;;;;;20.60;100.00;99310.41;4865507;29;20515;-73
2022/09/14 10:41:03;;;;;;;6.70;5.40;;;;;;;20.51;100.00;99310.47;4864751;29;20437;-72
2022/09/14 10:43:48;;;;;;;8.57;6.37;;;;;;;20.33;100.00;99316.84;4865171;29;20436;-73
2022/09/14 10:46:21;;;;;;;8.00;7.30;;;;;;;20.12;100.00;99327.25;4864635;29;20425;-72
2022/09/14 10:49:13;;;;;;;8.13;7.43;;;;;;;20.00;100.00;99335.69;4865252;29;20456;-73
2022/09/14 10:51:49;;;;;;;9.17;8.30;;;;;;;20.04;100.00;99330.78;4808372;29;20448;-73
2022/09/14 10:54:48;;;;;;;8.63;7.70;;;;;;;20.05;100.00;99312.50;4807795;29;20609;-73
2022/09/14 10:57:24;;;;;;;9.30;8.20;;;;;;;20.25;100.00;99313.19;4807239;29;20462;-73
2022/09/14 10:59:55;;;;;;;9.50;8.60;;;;;;;20.47;100.00;99320.03;4807729;29;20492;-73
2022/09/14 11:02:53;;;;;;;10.80;9.47;;;;;;;20.53;100.00;99320.25;4807314;29;20444;-72
2022/09/14 11:05:25;;;;;;;9.40;8.50;;;;;;;20.38;100.00;99317.22;4807156;29;20520;-73
2022/09/14 11:08:07;;;;;;;10.20;9.20;;;;;;;20.31;100.00;99320.75;4806614;29;20506;-73
2022/09/14 11:10:43;;;;;;;12.53;8.90;;;;;;;20.51;100.00;99316.81;4806644;29;20508;-72
2022/09/14 11:13:25;;;;;;;11.50;8.80;;;;;;;20.78;100.00;99304.00;4807685;29;20519;-73
2022/09/14 11:16:02;;;;;;;9.33;8.33;;;;;;;21.10;100.00;99295.13;4807999;29;20503;-73
2022/09/14 11:18:38;;;;;;;9.00;8.10;;;;;;;21.33;100.00;99287.19;4809526;29;20507;-72
2022/09/14 11:21:16;;;;;;;11.30;8.00;;;;;;;21.18;100.00;99283.34;4809276;29;20618;-72
2022/09/14 11:23:49;;;;;;;10.80;8.60;;;;;;;20.82;100.00;99294.47;4807028;29;20572;-73
2022/09/14 11:26:23;;;;;;;9.47;8.30;;;;;;;20.82;100.00;99298.03;4808241;29;20431;-73